Airfield :







YOU CAN JOIN US ON...

 
LOGIN :

Register | Disclaimer

   EN    FR    IT 

 









Legend :    VFR   Marginal VFR   IFR   Intensive IFR   Very Intensive IFR
Visi :
Ceiling :
>= 8 km
>= 3000ft
5 to 8 km
1000 to 3000 ft
1500m to 5 km
500 to 1000 ft
800 to 1500m
200 to 500 ft
< 800m
< 200 ft
Symbols :   Thunderstorms  Fog  Heavy snow  Heavy precipitations  Wind > 20 kt






- Airport Elevation : 59 ft
- IATA code : SDQ


MDSD - Las Americas Int.

CURRENT METAR :
  • 181700Z VRB03KT 8000 VCSH FEW014CB BKN016 BKN070 29/26 Q1012 CB/E/SE/SW

EXPIRED METARs :
  • 181600Z 04004KT 8000 VCSH FEW04CB BKN015 BKN070 29/26 Q1013 CB/SE/S/SW
  • 181500Z 03004KT 8000 VCSH FEW014CB BKN015 BKN070 28/26 Q1013 RERA CB/SE/S/SW
  • 181400Z 02004KT 8000 -RA FEW014CB BKN015 BKN070 27/27 Q1013 CB/SW/NW
  • 181300Z 02004KT 8000 -RA FEW014CB BKN015 BKN070 26/25 Q1013 CB/SE/S/SW

TAF TAF MDSD
Valid from the 18 at 12:00 until the 19 at 12:00 UTC


181000Z 1812/1912 VRB03KT 9999 SCT020 SCT080 BKN300
BECMG 1816/1818 16008KT
MDCS FIR / North America



MET'MAP, your aeronautical weather chart ! - Copyright ORBIFLY December 2007 - Disclaimer

ORBIFLY MET'MAP TEAM :

Programming & Development : Alexandra Zaïnal
Original concept : Baudouin d'Aumeries
Technical & hardware support : Manuel Goepfert
Assistance : Marc-Olivier Méhu




SOURCES & CREDITS :

   NOAA